createdAt,value
2022-08-01T00:00:48.200Z,99.99
2022-08-01T00:01:49.866Z,99.99
2022-08-01T00:02:50.786Z,99.99
2022-08-01T00:03:49.128Z,99.99
2022-08-01T00:04:49.439Z,99.99
2022-08-01T00:05:49.745Z,99.99
2022-08-01T00:06:50.059Z,99.99
2022-08-01T00:07:52.227Z,99.99
2022-08-01T00:08:52.407Z,99.99
2022-08-01T00:09:50.915Z,99.99
2022-08-01T00:10:51.226Z,99.99
2022-08-01T00:11:59.554Z,99.99
2022-08-01T00:12:54.698Z,99.99
2022-08-01T00:13:53.883Z,99.99
2022-08-01T00:14:52.391Z,99.99
2022-08-01T00:15:54.381Z,99.99
2022-08-01T00:16:54.878Z,99.99
2022-08-01T00:17:53.265Z,99.99
2022-08-01T00:18:55.443Z,99.99
2022-08-01T00:19:54.831Z,99.99
2022-08-01T00:20:54.109Z,99.99
2022-08-01T00:21:56.289Z,99.99
2022-08-01T00:22:56.473Z,99.99
2022-08-01T00:23:56.629Z,99.99
2022-08-01T00:24:55.259Z,99.99
2022-08-01T00:25:55.571Z,99.99
2022-08-01T00:26:55.869Z,99.99
2022-08-01T00:27:58.049Z,99.99
2022-08-01T00:28:58.237Z,99.99
2022-08-01T00:30:13.860Z,99.99
2022-08-01T00:30:58.063Z,99.99
2022-08-01T00:31:57.294Z,99.99
2022-08-01T00:32:57.614Z,99.99
2022-08-01T00:33:59.775Z,99.99
2022-08-01T00:34:58.154Z,99.99
2022-08-01T00:35:58.458Z,99.99
2022-08-01T00:36:58.773Z,99.99
2022-08-01T00:38:00.955Z,99.99
2022-08-01T00:38:59.336Z,99.99
2022-08-01T00:40:01.524Z,99.99
2022-08-01T00:40:59.904Z,99.99
2022-08-01T00:42:00.270Z,99.99
2022-08-01T00:43:00.449Z,99.99
2022-08-01T00:44:02.623Z,99.99
2022-08-01T00:45:01.009Z,99.99
2022-08-01T00:46:01.309Z,99.99
2022-08-01T00:47:04.952Z,99.99
2022-08-01T00:48:01.846Z,99.99
2022-08-01T00:49:06.021Z,99.99
2022-08-01T00:50:05.668Z,99.99
2022-08-01T00:51:04.392Z,99.99
2022-08-01T00:52:04.248Z,99.99
2022-08-01T00:53:05.177Z,99.99
2022-08-01T00:54:06.816Z,99.99
2022-08-01T00:55:07.007Z,99.99
2022-08-01T00:56:05.090Z,99.99
2022-08-01T00:57:09.898Z,99.99
2022-08-01T00:58:06.678Z,99.99
2022-08-01T00:59:06.989Z,99.99
2022-08-01T01:00:07.118Z,99.99
2022-08-01T01:01:06.695Z,99.99
2022-08-01T01:02:14.973Z,99.99
2022-08-01T01:03:08.263Z,99.99
2022-08-01T01:04:08.840Z,99.99
2022-08-01T01:05:08.605Z,99.99
2022-08-01T01:06:07.096Z,99.99
2022-08-01T01:07:07.403Z,99.99
2022-08-01T01:08:07.698Z,99.99
2022-08-01T01:09:08.006Z,99.99
2022-08-01T01:10:10.185Z,99.99
2022-08-01T01:11:08.653Z,99.99
2022-08-01T01:12:09.428Z,99.99
2022-08-01T01:13:09.290Z,99.99
2022-08-01T01:14:09.599Z,99.99
2022-08-01T01:15:11.787Z,99.99
2022-08-01T01:16:12.694Z,99.99
2022-08-01T01:17:12.405Z,99.99
2022-08-01T01:18:10.779Z,99.99
2022-08-01T01:19:11.095Z,99.99
2022-08-01T01:20:12.283Z,99.99
2022-08-01T01:21:13.474Z,99.99
2022-08-01T01:22:13.657Z,99.99
2022-08-01T01:23:12.298Z,99.99
2022-08-01T01:24:14.625Z,99.99
2022-08-01T01:25:13.813Z,99.99
2022-08-01T01:26:14.994Z,99.99
2022-08-01T01:27:15.154Z,99.99
2022-08-01T01:28:15.307Z,99.99
2022-08-01T01:29:15.972Z,99.99
2022-08-01T01:30:16.143Z,99.99
2022-08-01T01:31:14.654Z,99.99
2022-08-01T01:32:16.836Z,99.99
2022-08-01T01:33:15.217Z,99.99
2022-08-01T01:34:15.527Z,99.99
2022-08-01T01:35:15.844Z,99.99
2022-08-01T01:36:18.016Z,99.99
2022-08-01T01:37:18.209Z,99.99
2022-08-01T01:38:16.707Z,99.99
2022-08-01T01:39:17.016Z,99.99
2022-08-01T01:40:17.331Z,99.99
2022-08-01T01:41:19.498Z,99.99
2022-08-01T01:42:19.675Z,99.99
2022-08-01T01:43:18.187Z,99.99
2022-08-01T01:44:18.497Z,99.99
2022-08-01T01:45:20.702Z,99.99
2022-08-01T01:46:19.082Z,99.99
2022-08-01T01:47:19.385Z,99.99
2022-08-01T01:48:21.559Z,99.99
2022-08-01T01:49:19.968Z,99.99
2022-08-01T01:50:22.103Z,99.99
2022-08-01T01:51:22.288Z,99.99
2022-08-01T01:52:22.773Z,99.99
2022-08-01T01:53:21.033Z,99.99
2022-08-01T01:54:21.339Z,99.99
2022-08-01T01:55:21.652Z,99.99
2022-08-01T01:56:21.957Z,99.99
2022-08-01T01:57:24.135Z,99.99
2022-08-01T01:58:24.325Z,99.99
2022-08-01T01:59:25.720Z,99.99
2022-08-01T02:00:24.696Z,99.99
2022-08-01T02:02:05.117Z,99.99
2022-08-01T02:02:24.682Z,99.99
2022-08-01T02:03:25.838Z,99.99
2022-08-01T02:04:25.551Z,99.99
2022-08-01T02:05:24.554Z,99.99
2022-08-01T02:06:26.737Z,99.99
2022-08-01T02:07:26.926Z,99.99
2022-08-01T02:08:27.228Z,99.99
2022-08-01T02:09:27.360Z,99.99
2022-08-01T02:10:28.535Z,99.99
2022-08-01T02:11:26.218Z,99.99
2022-08-01T02:12:28.432Z,99.99
2022-08-01T02:13:26.849Z,99.99
2022-08-01T02:14:28.997Z,99.99
2022-08-01T02:15:27.384Z,99.99
2022-08-01T02:16:27.686Z,99.99
2022-08-01T02:17:29.851Z,99.99
2022-08-01T02:18:29.582Z,99.99
2022-08-01T02:19:28.465Z,99.99
2022-08-01T02:20:30.641Z,99.99
2022-08-01T02:21:29.024Z,99.99
2022-08-01T02:22:29.319Z,99.99
2022-08-01T02:23:29.627Z,99.99
2022-08-01T02:24:30.723Z,99.99
2022-08-01T02:25:32.122Z,99.99
2022-08-01T02:26:30.508Z,99.99
2022-08-01T02:27:32.700Z,99.99
2022-08-01T02:28:31.087Z,99.99
2022-08-01T02:29:31.391Z,99.99
2022-08-01T02:30:33.569Z,99.99
2022-08-01T02:31:31.959Z,99.99
2022-08-01T02:32:34.132Z,99.99
2022-08-01T02:33:32.516Z,99.99
2022-08-01T02:34:34.694Z,99.99
2022-08-01T02:35:34.875Z,99.99
2022-08-01T02:36:34.410Z,99.99
2022-08-01T02:37:33.655Z,99.99
2022-08-01T02:38:33.972Z,99.99
2022-08-01T02:39:34.283Z,99.99
2022-08-01T02:40:36.461Z,99.99
2022-08-01T02:41:34.846Z,99.99
2022-08-01T02:42:35.153Z,99.99
2022-08-01T02:43:35.493Z,99.99
2022-08-01T02:44:39.107Z,99.99
2022-08-01T02:45:37.842Z,99.99
2022-08-01T02:46:36.470Z,99.99
2022-08-01T02:47:38.646Z,99.99
2022-08-01T02:48:37.026Z,99.99
2022-08-01T02:49:39.229Z,99.99
2022-08-01T02:50:37.601Z,99.99
2022-08-01T02:51:39.785Z,99.99
2022-08-01T02:52:39.961Z,99.99
2022-08-01T02:53:44.269Z,99.99
2022-08-01T02:54:39.794Z,99.99
2022-08-01T02:55:40.982Z,99.99
2022-08-01T02:56:40.160Z,99.99
2022-08-01T02:57:52.302Z,99.99
2022-08-01T02:58:41.705Z,99.99
2022-08-01T02:59:41.251Z,99.99
2022-08-01T03:00:43.794Z,99.99
2022-08-01T03:01:42.590Z,99.99
2022-08-01T03:02:42.150Z,99.99
2022-08-01T03:03:43.333Z,99.99
2022-08-01T03:04:42.721Z,99.99
2022-08-01T03:05:42.887Z,99.99
2022-08-01T03:06:45.213Z,99.99
2022-08-01T03:07:43.456Z,99.99
2022-08-01T03:08:44.797Z,99.99
2022-08-01T03:09:44.032Z,99.99
2022-08-01T03:10:44.194Z,99.99
2022-08-01T03:11:45.043Z,99.99
2022-08-01T03:12:44.773Z,99.99
2022-08-01T03:13:45.994Z,99.99
2022-08-01T03:14:44.400Z,99.99
2022-08-01T03:15:44.728Z,99.99
2022-08-01T03:16:45.054Z,99.99
2022-08-01T03:17:45.371Z,99.99
2022-08-01T03:18:46.573Z,99.99
2022-08-01T03:19:45.953Z,99.99
2022-08-01T03:20:46.269Z,99.99
2022-08-01T03:21:48.439Z,99.99
2022-08-01T03:22:48.641Z,99.99
2022-08-01T03:23:52.271Z,99.99
2022-08-01T03:24:50.865Z,99.99
2022-08-01T03:25:49.738Z,99.99
2022-08-01T03:26:48.013Z,99.99
2022-08-01T03:27:48.333Z,99.99
2022-08-01T03:28:50.536Z,99.99
2022-08-01T03:29:50.708Z,99.99
2022-08-01T03:30:50.903Z,99.99
2022-08-01T03:31:50.775Z,99.99
2022-08-01T03:32:51.469Z,99.99
2022-08-01T03:33:51.737Z,99.99
2022-08-01T03:34:52.375Z,99.99
2022-08-01T03:35:52.535Z,99.99
2022-08-01T03:36:50.943Z,99.99
2022-08-01T03:38:14.893Z,99.99
2022-08-01T03:38:54.459Z,99.99
2022-08-01T03:39:51.879Z,99.99
2022-08-01T03:40:52.219Z,99.99
2022-08-01T03:41:56.472Z,99.99
2022-08-01T03:42:52.855Z,99.99
2022-08-01T03:43:53.197Z,99.99
2022-08-01T03:44:55.371Z,99.99
2022-08-01T03:45:53.777Z,99.99
2022-08-01T03:46:54.130Z,99.99
2022-08-01T03:47:54.462Z,99.99
2022-08-01T03:48:54.908Z,99.99
2022-08-01T03:49:57.037Z,99.99
2022-08-01T03:50:55.325Z,99.99
2022-08-01T03:51:55.670Z,99.99
2022-08-01T03:52:57.849Z,99.99
2022-08-01T03:53:58.013Z,99.99
2022-08-01T03:54:58.192Z,99.99
2022-08-01T03:55:56.853Z,99.99
2022-08-01T03:56:57.210Z,99.99
2022-08-01T03:57:57.423Z,99.99
2022-08-01T03:58:57.766Z,99.99
2022-08-01T03:59:59.940Z,99.99
2022-08-01T04:00:58.376Z,99.99
2022-08-01T04:01:58.694Z,99.99
2022-08-01T04:02:59.042Z,99.99
2022-08-01T04:04:01.221Z,99.99
2022-08-01T04:04:59.644Z,99.99
2022-08-01T04:06:01.811Z,99.99
2022-08-01T04:07:00.154Z,99.99
2022-08-01T04:08:00.375Z,99.99
2022-08-01T04:09:00.603Z,99.99
2022-08-01T04:10:02.784Z,99.99
2022-08-01T04:11:01.086Z,99.99
2022-08-01T04:12:12.209Z,99.99
2022-08-01T04:13:02.649Z,99.99
2022-08-01T04:14:01.922Z,99.99
2022-08-01T04:15:05.099Z,99.99
2022-08-01T04:16:02.520Z,99.99
2022-08-01T04:17:02.877Z,99.99
2022-08-01T04:18:03.215Z,99.99
2022-08-01T04:19:03.702Z,99.99
2022-08-01T04:20:03.882Z,99.99
2022-08-01T04:21:06.085Z,99.99
2022-08-01T04:22:05.888Z,99.99
2022-08-01T04:23:04.827Z,99.99
2022-08-01T04:24:05.044Z,99.99
2022-08-01T04:25:07.237Z,99.99
2022-08-01T04:26:07.419Z,99.99
2022-08-01T04:27:09.549Z,99.99
2022-08-01T04:28:06.234Z,99.99
2022-08-01T04:29:09.890Z,99.99
2022-08-01T04:30:10.073Z,99.99
2022-08-01T04:31:09.800Z,99.99
2022-08-01T04:32:07.715Z,99.99
2022-08-01T04:33:08.581Z,99.99
2022-08-01T04:34:07.863Z,99.99
2022-08-01T04:35:22.973Z,99.99
2022-08-01T04:36:09.506Z,99.99
2022-08-01T04:37:10.693Z,99.99
2022-08-01T04:38:10.875Z,99.99
2022-08-01T04:39:09.299Z,99.99
2022-08-01T04:40:09.527Z,99.99
2022-08-01T04:41:10.020Z,99.99
2022-08-01T04:42:10.209Z,99.99
2022-08-01T04:43:14.721Z,99.99
2022-08-01T04:44:10.784Z,99.99
2022-08-01T04:45:11.012Z,99.99
2022-08-01T04:46:14.644Z,99.99
2022-08-01T04:47:11.583Z,99.99
2022-08-01T04:48:15.215Z,99.99
2022-08-01T04:49:15.483Z,99.99
2022-08-01T04:50:13.093Z,99.99
2022-08-01T04:51:12.629Z,99.99
2022-08-01T04:52:18.852Z,99.99
2022-08-01T04:53:15.993Z,99.99
2022-08-01T04:54:14.241Z,99.99
2022-08-01T04:55:14.666Z,99.99
2022-08-01T04:56:14.818Z,99.99
2022-08-01T04:57:16.173Z,99.99
2022-08-01T04:58:18.215Z,99.99
2022-08-01T04:59:19.999Z,99.99
2022-08-01T05:00:15.975Z,99.99
2022-08-01T05:01:16.167Z,99.99
2022-08-01T05:02:15.615Z,99.99
2022-08-01T05:03:17.806Z,99.99
2022-08-01T05:04:17.993Z,99.99
2022-08-01T05:05:16.400Z,99.99
2022-08-01T05:06:16.622Z,99.99
2022-08-01T05:07:18.836Z,99.99
2022-08-01T05:08:17.122Z,99.99
2022-08-01T05:09:19.316Z,99.99
2022-08-01T05:10:17.723Z,99.99
2022-08-01T05:11:18.075Z,99.99
2022-08-01T05:12:19.255Z,99.99
2022-08-01T05:13:20.442Z,99.99
2022-08-01T05:14:20.595Z,99.99
2022-08-01T05:15:20.756Z,99.99
2022-08-01T05:16:21.439Z,99.99
2022-08-01T05:17:21.626Z,99.99
2022-08-01T05:18:28.026Z,99.99
2022-08-01T05:19:23.486Z,99.99
2022-08-01T05:20:22.671Z,99.99
2022-08-01T05:21:22.857Z,99.99
2022-08-01T05:22:23.029Z,99.99
2022-08-01T05:23:38.359Z,99.99
2022-08-01T05:24:22.985Z,99.99
2022-08-01T05:25:57.261Z,99.99
2022-08-01T05:26:23.556Z,99.90
2022-08-01T05:27:26.701Z,99.49
2022-08-01T05:28:23.124Z,99.65
2022-08-01T05:29:25.308Z,99.44
2022-08-01T05:30:25.461Z,99.08
2022-08-01T05:31:25.643Z,99.14
2022-08-01T05:32:24.198Z,99.14
2022-08-01T05:33:26.362Z,99.04
2022-08-01T05:34:26.518Z,98.84
2022-08-01T05:35:47.524Z,98.54
2022-08-01T05:36:27.859Z,98.33
2022-08-01T05:37:27.552Z,98.43
2022-08-01T05:38:25.843Z,98.54
2022-08-01T05:39:28.031Z,98.33
2022-08-01T05:40:26.449Z,97.88
2022-08-01T05:41:28.638Z,97.94
2022-08-01T05:42:26.927Z,96.67
2022-08-01T05:43:29.375Z,95.21
2022-08-01T05:44:29.335Z,94.11
2022-08-01T05:45:27.884Z,92.69
2022-08-01T05:46:30.131Z,92.65
2022-08-01T05:47:30.235Z,91.39
2022-08-01T05:48:30.416Z,91.30
2022-08-01T05:49:29.022Z,90.59
2022-08-01T05:50:29.249Z,90.53
2022-08-01T05:51:29.486Z,90.52
2022-08-01T05:52:29.722Z,92.03
2022-08-01T05:53:31.905Z,92.54
2022-08-01T05:54:31.009Z,92.69
2022-08-01T05:55:30.449Z,91.38
2022-08-01T05:56:32.460Z,90.88
2022-08-01T05:57:30.924Z,91.49
2022-08-01T05:58:33.105Z,90.78
2022-08-01T05:59:32.321Z,90.53
2022-08-01T06:00:31.645Z,89.22
2022-08-01T06:01:31.917Z,89.22
2022-08-01T06:02:32.290Z,89.32
2022-08-01T06:03:34.336Z,89.26
2022-08-01T06:04:32.646Z,90.37
2022-08-01T06:05:32.890Z,89.92
2022-08-01T06:06:33.267Z,88.26
2022-08-01T06:07:35.287Z,87.56
2022-08-01T06:08:35.466Z,87.56
2022-08-01T06:09:34.031Z,87.12
2022-08-01T06:10:36.176Z,87.32
2022-08-01T06:11:36.369Z,87.01
2022-08-01T06:12:35.733Z,87.01
2022-08-01T06:13:44.816Z,86.65
2022-08-01T06:14:36.427Z,86.35
2022-08-01T06:15:35.731Z,86.65
2022-08-01T06:16:37.915Z,87.05
2022-08-01T06:17:36.222Z,87.15
2022-08-01T06:18:38.399Z,86.45
2022-08-01T06:19:37.570Z,86.25
2022-08-01T06:20:36.998Z,86.35
2022-08-01T06:21:37.240Z,86.10
2022-08-01T06:22:37.480Z,85.90
2022-08-01T06:23:39.663Z,84.89
2022-08-01T06:24:38.154Z,84.89
2022-08-01T06:25:38.400Z,85.19
2022-08-01T06:26:38.638Z,84.93
2022-08-01T06:27:38.884Z,85.62
2022-08-01T06:28:41.052Z,85.78
2022-08-01T06:29:39.366Z,85.84
2022-08-01T06:30:40.594Z,84.59
2022-08-01T06:31:39.892Z,83.88
2022-08-01T06:32:40.131Z,84.12
2022-08-01T06:33:42.316Z,84.67
2022-08-01T06:34:40.624Z,84.77
2022-08-01T06:35:40.877Z,85.50
2022-08-01T06:36:41.104Z,83.72
2022-08-01T06:37:41.347Z,84.43
2022-08-01T06:38:41.586Z,85.38
2022-08-01T06:39:43.769Z,84.67
2022-08-01T06:40:44.055Z,85.93
2022-08-01T06:41:42.344Z,84.81
2022-08-01T06:42:42.574Z,85.17
2022-08-01T06:43:42.838Z,83.58
2022-08-01T06:44:43.074Z,82.64
2022-08-01T06:45:45.261Z,81.93
2022-08-01T06:46:43.600Z,81.93
2022-08-01T06:47:45.210Z,82.03
2022-08-01T06:48:46.050Z,81.02
2022-08-01T06:49:44.381Z,81.05
2022-08-01T06:50:48.019Z,81.50
2022-08-01T06:51:44.972Z,82.41
2022-08-01T06:52:48.582Z,82.21
2022-08-01T06:53:48.751Z,81.90
2022-08-01T06:54:46.773Z,81.26
2022-08-01T06:55:49.961Z,80.41
2022-08-01T06:56:48.353Z,79.81
2022-08-01T06:57:47.492Z,80.27
2022-08-01T06:58:48.231Z,79.87
2022-08-01T06:59:54.200Z,78.86
2022-08-01T07:00:52.600Z,79.10
2022-08-01T07:01:49.409Z,79.41
2022-08-01T07:02:47.850Z,79.87
2022-08-01T07:03:53.299Z,79.36
2022-08-01T07:04:50.145Z,78.96
2022-08-01T07:05:50.536Z,78.06
2022-08-01T07:06:50.735Z,78.96
2022-08-01T07:07:50.919Z,78.52
2022-08-01T07:08:49.466Z,77.68
2022-08-01T07:09:53.117Z,76.97
2022-08-01T07:10:53.304Z,77.21
2022-08-01T07:11:50.265Z,78.63
2022-08-01T07:12:51.436Z,78.86
2022-08-01T07:13:54.636Z,79.06
2022-08-01T07:14:52.418Z,79.00
2022-08-01T07:15:52.160Z,79.47
2022-08-01T07:16:53.516Z,78.50
2022-08-01T07:17:52.737Z,78.39
2022-08-01T07:18:52.897Z,78.70
2022-08-01T07:19:53.317Z,78.76
2022-08-01T07:20:54.506Z,78.12
2022-08-01T07:21:54.698Z,77.68
2022-08-01T07:22:54.048Z,77.48
2022-08-01T07:23:54.469Z,77.31
2022-08-01T07:24:54.848Z,78.22
2022-08-01T07:25:59.415Z,78.12
2022-08-01T07:26:55.243Z,77.42
2022-08-01T07:27:55.385Z,77.42
2022-08-01T07:28:54.813Z,78.32
2022-08-01T07:29:55.045Z,78.19
2022-08-01T07:30:55.284Z,78.59
2022-08-01T07:31:57.463Z,76.84
2022-08-01T07:32:55.785Z,75.96
2022-08-01T07:33:56.004Z,77.50
2022-08-01T07:34:56.245Z,76.47
2022-08-01T07:35:56.490Z,76.64
2022-08-01T07:36:58.658Z,77.20
2022-08-01T07:37:56.958Z,76.30
2022-08-01T07:38:57.198Z,77.34
2022-08-01T07:39:59.376Z,76.87
2022-08-01T07:40:59.534Z,76.64
2022-08-01T07:42:07.106Z,76.91
2022-08-01T07:43:01.397Z,78.42
2022-08-01T07:44:04.570Z,76.17
2022-08-01T07:44:59.031Z,77.28
2022-08-01T07:46:01.207Z,76.98
2022-08-01T07:46:59.522Z,79.04
2022-08-01T07:48:01.689Z,79.50
2022-08-01T07:49:00.057Z,78.26
2022-08-01T07:50:00.274Z,78.66
2022-08-01T07:51:00.510Z,78.32
2022-08-01T07:52:02.683Z,76.94
2022-08-01T07:53:00.979Z,76.20
2022-08-01T07:54:03.153Z,74.65
2022-08-01T07:55:01.465Z,73.85
2022-08-01T07:56:01.693Z,74.85
2022-08-01T07:57:03.908Z,74.82
2022-08-01T07:58:02.201Z,74.41
2022-08-01T07:59:04.382Z,72.84
2022-08-01T08:00:03.964Z,72.77
2022-08-01T08:01:03.010Z,73.82
2022-08-01T08:02:03.442Z,74.62
2022-08-01T08:03:03.593Z,74.52
2022-08-01T08:04:05.772Z,75.02
2022-08-01T08:05:04.081Z,76.97
2022-08-01T08:06:04.352Z,77.66
2022-08-01T08:07:04.935Z,76.94
2022-08-01T08:08:04.928Z,74.45
2022-08-01T08:09:07.109Z,74.65
2022-08-01T08:10:07.290Z,74.58
2022-08-01T08:11:05.668Z,75.29
2022-08-01T08:12:08.337Z,75.09
2022-08-01T08:13:08.044Z,74.65
2022-08-01T08:14:06.417Z,73.28
2022-08-01T08:15:08.608Z,73.61
2022-08-01T08:16:06.909Z,73.52
2022-08-01T08:17:09.102Z,72.31
2022-08-01T08:18:07.532Z,71.97
2022-08-01T08:19:07.766Z,72.03
2022-08-01T08:20:09.948Z,72.57
2022-08-01T08:21:08.253Z,70.43
2022-08-01T08:22:08.963Z,69.69
2022-08-01T08:23:08.779Z,69.49
2022-08-01T08:24:09.096Z,70.96
2022-08-01T08:25:11.834Z,70.70
2022-08-01T08:26:11.472Z,71.30
2022-08-01T08:27:11.651Z,72.10
2022-08-01T08:28:10.201Z,70.39
2022-08-01T08:29:10.437Z,70.73
2022-08-01T08:30:12.620Z,71.94
2022-08-01T08:31:25.226Z,71.90
2022-08-01T08:32:12.185Z,72.10
2022-08-01T08:33:13.815Z,72.37
2022-08-01T08:34:11.733Z,72.44
2022-08-01T08:35:13.181Z,68.65
2022-08-01T08:36:12.303Z,69.45
2022-08-01T08:37:14.483Z,70.12
2022-08-01T08:38:12.788Z,68.49
2022-08-01T08:39:13.081Z,68.12
2022-08-01T08:40:15.273Z,69.02
2022-08-01T08:41:16.850Z,68.85
2022-08-01T08:42:14.849Z,68.62
2022-08-01T08:43:14.153Z,69.52
2022-08-01T08:44:16.311Z,69.72
2022-08-01T08:45:16.471Z,69.49
2022-08-01T08:46:14.897Z,69.79
2022-08-01T08:47:20.085Z,67.99
2022-08-01T08:48:17.267Z,67.72
2022-08-01T08:49:15.663Z,68.12
2022-08-01T08:50:17.786Z,67.51
2022-08-01T08:51:16.224Z,68.32
2022-08-01T08:52:16.457Z,68.68
2022-08-01T08:53:19.011Z,66.31
2022-08-01T08:54:16.919Z,66.61
2022-08-01T08:55:17.158Z,67.35
2022-08-01T08:56:17.391Z,66.38
2022-08-01T08:57:17.629Z,65.21
2022-08-01T08:58:19.812Z,67.02
2022-08-01T08:59:18.124Z,66.78
2022-08-01T09:00:20.310Z,68.18
2022-08-01T09:01:18.652Z,69.66
2022-08-01T09:02:18.907Z,68.35
2022-08-01T09:03:19.216Z,66.47
2022-08-01T09:04:19.488Z,68.95
2022-08-01T09:05:20.156Z,69.82
2022-08-01T09:06:20.118Z,68.65
2022-08-01T09:07:22.305Z,68.75
2022-08-01T09:08:20.626Z,69.18
2022-08-01T09:09:22.794Z,69.89
2022-08-01T09:10:21.096Z,71.84
2022-08-01T09:11:22.774Z,71.00
2022-08-01T09:12:21.668Z,69.09
2022-08-01T09:13:21.891Z,67.04
2022-08-01T09:14:24.059Z,67.51
2022-08-01T09:15:24.229Z,68.35
2022-08-01T09:16:22.701Z,66.11
2022-08-01T09:17:22.938Z,65.94
2022-08-01T09:18:23.168Z,68.12
2022-08-01T09:19:40.351Z,66.28
2022-08-01T09:20:26.705Z,65.61
2022-08-01T09:21:24.035Z,65.41
2022-08-01T09:22:25.123Z,65.34
2022-08-01T09:23:25.542Z,65.14
2022-08-01T09:24:30.916Z,64.43
2022-08-01T09:25:29.849Z,64.84
2022-08-01T09:26:27.043Z,62.73
2022-08-01T09:27:26.433Z,64.61
2022-08-01T09:28:25.852Z,62.50
2022-08-01T09:29:37.555Z,64.81
2022-08-01T09:30:29.285Z,64.98
2022-08-01T09:31:26.609Z,63.17
2022-08-01T09:32:34.738Z,64.01
2022-08-01T09:33:28.162Z,64.21
2022-08-01T09:34:27.495Z,64.31
2022-08-01T09:35:31.559Z,64.51
2022-08-01T09:36:27.992Z,65.25
2022-08-01T09:37:28.265Z,62.92
2022-08-01T09:38:29.493Z,62.31
2022-08-01T09:39:28.842Z,63.24
2022-08-01T09:40:29.085Z,63.84
2022-08-01T09:41:37.905Z,62.44
2022-08-01T09:42:30.574Z,62.47
2022-08-01T09:43:29.878Z,64.21
2022-08-01T09:44:42.069Z,63.96
2022-08-01T09:45:41.520Z,64.34
2022-08-01T09:46:32.469Z,63.78
2022-08-01T09:47:30.894Z,62.27
2022-08-01T09:48:34.548Z,63.67
2022-08-01T09:49:50.412Z,62.50
2022-08-01T09:50:32.616Z,65.04
2022-08-01T09:51:59.646Z,64.43
2022-08-01T09:52:34.981Z,64.43
2022-08-01T09:53:33.411Z,63.43
2022-08-01T09:54:33.571Z,63.53
2022-08-01T09:55:34.125Z,62.33
2022-08-01T09:56:35.171Z,62.00
2022-08-01T09:57:34.565Z,62.77
2022-08-01T09:58:35.373Z,61.47
2022-08-01T09:59:56.801Z,62.07
2022-08-01T10:00:45.296Z,61.54
2022-08-01T10:01:38.586Z,61.34
2022-08-01T10:02:34.956Z,61.64
2022-08-01T10:03:37.192Z,61.64
2022-08-01T10:04:35.485Z,61.14
2022-08-01T10:05:37.173Z,61.64
2022-08-01T10:06:37.889Z,59.61
2022-08-01T10:07:43.425Z,60.35
2022-08-01T10:08:39.253Z,59.45
2022-08-01T10:09:39.984Z,58.70
2022-08-01T10:10:37.502Z,59.86
2022-08-01T10:11:39.253Z,61.36
2022-08-01T10:12:37.616Z,60.16
2022-08-01T10:13:37.860Z,59.16
2022-08-01T10:14:40.157Z,61.14
2022-08-01T10:15:38.497Z,58.91
2022-08-01T10:16:40.781Z,60.61
2022-08-01T10:17:50.669Z,59.88
2022-08-01T10:18:40.440Z,61.04
2022-08-01T10:19:41.631Z,63.24
2022-08-01T10:20:40.014Z,64.58
2022-08-01T10:21:56.112Z,64.18
2022-08-01T10:22:43.349Z,62.67
2022-08-01T10:23:41.355Z,63.78
2022-08-01T10:24:41.260Z,64.65
2022-08-01T10:25:47.105Z,62.21
2022-08-01T10:26:43.644Z,61.68
2022-08-01T10:27:43.824Z,61.08
2022-08-01T10:28:42.379Z,60.08
2022-08-01T10:29:45.939Z,59.74
2022-08-01T10:30:43.909Z,62.31
2022-08-01T10:31:43.189Z,62.08
2022-08-01T10:32:50.967Z,60.78
2022-08-01T10:33:50.584Z,59.81
2022-08-01T10:34:46.734Z,60.61
2022-08-01T10:35:47.568Z,62.01
2022-08-01T10:36:44.522Z,62.41
2022-08-01T10:37:51.888Z,63.92
2022-08-01T10:38:46.064Z,65.18
2022-08-01T10:39:47.284Z,64.15
2022-08-01T10:40:45.675Z,62.34
2022-08-01T10:41:45.919Z,65.11
2022-08-01T10:42:46.209Z,64.21
2022-08-01T10:43:47.122Z,64.98
2022-08-01T10:44:46.830Z,62.97
2022-08-01T10:45:49.016Z,62.97
2022-08-01T10:46:49.217Z,64.88
2022-08-01T10:47:50.084Z,64.68
2022-08-01T10:48:49.844Z,64.75
2022-08-01T10:49:48.264Z,65.01
2022-08-01T10:50:49.321Z,63.18
2022-08-01T10:51:52.392Z,62.61
2022-08-01T10:52:50.691Z,61.77
2022-08-01T10:53:50.877Z,63.87
2022-08-01T10:54:52.414Z,65.31
2022-08-01T10:55:51.789Z,65.62
2022-08-01T10:56:50.094Z,62.64
2022-08-01T10:57:52.925Z,63.81
2022-08-01T10:58:50.775Z,64.74
2022-08-01T11:00:00.896Z,65.41
2022-08-01T11:00:54.222Z,63.78
2022-08-01T11:01:53.452Z,64.61
2022-08-01T11:02:53.586Z,64.18
2022-08-01T11:03:59.053Z,63.64
2022-08-01T11:04:53.401Z,63.71
2022-08-01T11:05:52.704Z,64.36
2022-08-01T11:06:52.928Z,62.78
2022-08-01T11:07:55.117Z,62.04
2022-08-01T11:08:53.506Z,64.09
2022-08-01T11:09:53.874Z,63.68
2022-08-01T11:10:54.105Z,62.75
2022-08-01T11:11:56.288Z,60.15
2022-08-01T11:12:54.610Z,62.25
2022-08-01T11:13:54.854Z,62.82
2022-08-01T11:14:56.060Z,59.49
2022-08-01T11:15:55.431Z,61.11
2022-08-01T11:16:57.609Z,61.45
2022-08-01T11:17:55.926Z,61.45
2022-08-01T11:19:00.070Z,61.88
2022-08-01T11:19:56.528Z,62.18
2022-08-01T11:21:57.405Z,63.61
2022-08-01T11:22:01.189Z,65.39
2022-08-01T11:22:57.300Z,67.29
2022-08-01T11:23:57.776Z,66.12
2022-08-01T11:24:57.778Z,68.05
2022-08-01T11:26:05.786Z,69.62
2022-08-01T11:27:01.135Z,67.52
2022-08-01T11:27:58.665Z,67.32
2022-08-01T11:29:19.031Z,69.19
2022-08-01T11:30:02.175Z,69.66
2022-08-01T11:30:59.500Z,68.42
2022-08-01T11:31:59.753Z,67.55
2022-08-01T11:33:11.434Z,65.99
2022-08-01T11:34:03.539Z,65.62
2022-08-01T11:35:00.683Z,66.36
2022-08-01T11:36:02.851Z,66.12
2022-08-01T11:37:03.212Z,66.85
2022-08-01T11:38:03.217Z,69.73
2022-08-01T11:39:03.404Z,67.45
2022-08-01T11:40:03.177Z,67.38
2022-08-01T11:41:04.292Z,67.49
2022-08-01T11:42:04.474Z,65.55
2022-08-01T11:43:04.649Z,63.81
2022-08-01T11:44:04.917Z,65.65
2022-08-01T11:45:05.049Z,63.65
2022-08-01T11:46:05.737Z,63.68
2022-08-01T11:47:08.936Z,63.84
2022-08-01T11:48:07.224Z,65.45
2022-08-01T11:49:06.467Z,64.28
2022-08-01T11:50:06.613Z,64.84
2022-08-01T11:51:06.806Z,64.98
2022-08-01T11:52:07.477Z,65.51
2022-08-01T11:53:07.664Z,65.31
2022-08-01T11:54:07.845Z,63.95
2022-08-01T11:55:10.477Z,62.71
2022-08-01T11:56:08.185Z,64.48
2022-08-01T11:57:08.663Z,62.97
2022-08-01T11:58:08.857Z,62.31
2022-08-01T11:59:08.349Z,60.81
2022-08-01T12:00:09.018Z,61.38
2022-08-01T12:01:09.783Z,60.65
2022-08-01T12:02:09.984Z,61.58
2022-08-01T12:03:10.124Z,61.91
2022-08-01T12:04:10.813Z,61.61
2022-08-01T12:05:12.161Z,62.44
2022-08-01T12:06:11.221Z,61.31
2022-08-01T12:07:11.415Z,60.24
2022-08-01T12:08:11.594Z,61.27
2022-08-01T12:09:12.110Z,61.87
2022-08-01T12:10:12.348Z,61.54
2022-08-01T12:11:12.528Z,60.16
2022-08-01T12:12:12.703Z,60.77
2022-08-01T12:13:13.388Z,62.44
2022-08-01T12:14:11.695Z,61.41
2022-08-01T12:15:13.891Z,60.11
2022-08-01T12:16:14.036Z,61.68
2022-08-01T12:17:14.197Z,62.48
2022-08-01T12:18:14.379Z,61.81
2022-08-01T12:19:15.062Z,63.31
2022-08-01T12:20:15.217Z,61.71
2022-08-01T12:21:15.379Z,63.20
2022-08-01T12:22:15.538Z,63.37
2022-08-01T12:23:16.225Z,62.14
2022-08-01T12:24:16.401Z,61.67
2022-08-01T12:25:14.848Z,62.57
2022-08-01T12:26:29.399Z,64.12
2022-08-01T12:27:16.359Z,62.21
2022-08-01T12:28:17.533Z,61.48
2022-08-01T12:29:17.713Z,61.58
2022-08-01T12:30:17.896Z,61.64
2022-08-01T12:31:18.574Z,62.84
2022-08-01T12:32:18.750Z,62.31
2022-08-01T12:33:18.203Z,61.61
2022-08-01T12:34:19.386Z,62.44
2022-08-01T12:35:19.568Z,61.94
2022-08-01T12:36:19.739Z,62.21
2022-08-01T12:37:18.432Z,61.88
2022-08-01T12:38:20.606Z,62.18
2022-08-01T12:39:20.768Z,61.14
2022-08-01T12:40:20.940Z,61.68
2022-08-01T12:41:19.989Z,61.45
2022-08-01T12:42:19.790Z,61.55
2022-08-01T12:43:27.529Z,61.05
2022-08-01T12:44:21.293Z,60.75
2022-08-01T12:45:20.606Z,60.55
2022-08-01T12:46:22.780Z,60.98
2022-08-01T12:47:21.098Z,61.51
2022-08-01T12:48:21.355Z,61.88
2022-08-01T12:49:21.653Z,60.21
2022-08-01T12:50:21.967Z,61.14
2022-08-01T12:51:24.111Z,60.71
2022-08-01T12:52:26.740Z,62.01
2022-08-01T12:53:22.882Z,60.71
2022-08-01T12:54:22.934Z,60.64
2022-08-01T12:55:25.124Z,61.14
2022-08-01T12:56:25.313Z,61.24